createdAt,value
2022-08-29T00:02:21.851Z,13.10
2022-08-29T00:05:08.594Z,13.09
2022-08-29T00:07:54.395Z,13.10
2022-08-29T00:10:40.993Z,13.19
2022-08-29T00:13:27.877Z,13.17
2022-08-29T00:16:13.521Z,13.25
2022-08-29T00:18:58.979Z,13.31
2022-08-29T00:21:44.797Z,13.24
2022-08-29T00:24:30.061Z,13.32
2022-08-29T00:27:15.595Z,13.34
2022-08-29T00:30:01.717Z,13.33
2022-08-29T00:32:47.560Z,13.29
2022-08-29T00:35:35.954Z,13.19
2022-08-29T00:38:22.104Z,13.20
2022-08-29T00:41:13.374Z,13.17
2022-08-29T00:43:58.845Z,13.11
2022-08-29T00:46:49.988Z,13.13
2022-08-29T00:49:44.561Z,13.06
2022-08-29T00:52:42.112Z,12.90
2022-08-29T00:55:31.470Z,12.86
2022-08-29T00:58:34.231Z,12.77
2022-08-29T01:01:20.477Z,12.80
2022-08-29T01:04:06.847Z,12.83
2022-08-29T01:06:55.671Z,12.79
2022-08-29T01:09:43.784Z,12.78
2022-08-29T01:12:29.374Z,12.82
2022-08-29T01:15:15.090Z,12.80
2022-08-29T01:18:03.417Z,13.06
2022-08-29T01:21:22.582Z,13.18
2022-08-29T01:24:46.064Z,13.23
2022-08-29T01:27:35.224Z,13.19
2022-08-29T01:30:20.866Z,13.20
2022-08-29T01:33:06.852Z,13.17
2022-08-29T01:35:53.987Z,13.12
2022-08-29T01:38:40.202Z,13.08
2022-08-29T01:41:26.730Z,13.14
2022-08-29T01:44:19.232Z,13.21
2022-08-29T01:47:05.047Z,13.26
2022-08-29T01:49:50.961Z,13.26
2022-08-29T01:52:36.174Z,13.15
2022-08-29T01:55:21.673Z,13.09
2022-08-29T01:58:07.681Z,13.05
2022-08-29T02:00:54.027Z,13.01
2022-08-29T02:03:39.320Z,13.02
2022-08-29T02:06:26.045Z,13.07
2022-08-29T02:09:12.320Z,13.09
2022-08-29T02:12:00.373Z,13.07
2022-08-29T02:14:45.607Z,13.03
2022-08-29T02:17:31.124Z,13.06
2022-08-29T02:20:16.881Z,13.07
2022-08-29T02:23:02.644Z,13.15
2022-08-29T02:25:49.996Z,13.15
2022-08-29T02:28:36.847Z,13.08
2022-08-29T02:31:23.367Z,12.99
2022-08-29T02:34:11.592Z,12.90
2022-08-29T02:36:59.678Z,12.99
2022-08-29T02:39:45.442Z,12.95
2022-08-29T02:42:30.903Z,12.94
2022-08-29T02:45:16.375Z,12.94
2022-08-29T02:48:01.801Z,13.08
2022-08-29T02:50:54.108Z,13.13
2022-08-29T02:53:39.602Z,13.18
2022-08-29T02:56:26.090Z,13.25
2022-08-29T02:59:12.180Z,13.27
2022-08-29T03:01:57.871Z,13.30
2022-08-29T03:04:43.493Z,13.30
2022-08-29T03:07:29.692Z,13.29
2022-08-29T03:10:16.064Z,13.21
2022-08-29T03:13:01.800Z,13.14
2022-08-29T03:15:47.899Z,13.07
2022-08-29T03:18:33.250Z,13.03
2022-08-29T03:21:21.958Z,13.06
2022-08-29T03:24:07.629Z,13.02
2022-08-29T03:26:56.676Z,13.03
2022-08-29T03:29:42.677Z,13.00
2022-08-29T03:32:28.278Z,13.00
2022-08-29T03:35:15.519Z,12.98
2022-08-29T03:38:01.455Z,12.96
2022-08-29T03:40:47.121Z,12.93
2022-08-29T03:43:33.368Z,12.79
2022-08-29T03:46:19.115Z,12.85
2022-08-29T03:49:07.401Z,12.87
2022-08-29T03:51:53.855Z,12.86
2022-08-29T03:54:39.715Z,12.83
2022-08-29T03:57:25.108Z,12.81
2022-08-29T04:00:16.315Z,12.90
2022-08-29T04:03:02.074Z,12.98
2022-08-29T04:05:47.549Z,13.06
2022-08-29T04:08:36.543Z,13.04
2022-08-29T04:11:24.294Z,12.97
2022-08-29T04:14:09.846Z,12.95
2022-08-29T04:16:55.472Z,12.93
2022-08-29T04:19:41.103Z,13.03
2022-08-29T04:22:26.947Z,13.15
2022-08-29T04:25:14.589Z,13.31
2022-08-29T04:28:00.209Z,13.44
2022-08-29T04:30:50.854Z,13.57
2022-08-29T04:33:37.528Z,13.63
2022-08-29T04:36:23.273Z,13.70
2022-08-29T04:39:09.979Z,13.68
2022-08-29T04:41:55.310Z,13.58
2022-08-29T04:44:40.951Z,13.54
2022-08-29T04:47:26.435Z,13.48
2022-08-29T04:50:16.246Z,13.51
2022-08-29T04:53:02.059Z,13.61
2022-08-29T04:56:06.607Z,13.57
2022-08-29T04:58:52.253Z,13.48
2022-08-29T05:01:37.771Z,13.56
2022-08-29T05:04:23.064Z,13.66
2022-08-29T05:07:08.757Z,13.68
2022-08-29T05:10:02.323Z,13.67
2022-08-29T05:12:48.502Z,13.75
2022-08-29T05:15:34.162Z,13.76
2022-08-29T05:18:20.559Z,13.71
2022-08-29T05:21:06.703Z,13.71
2022-08-29T05:23:52.103Z,13.76
2022-08-29T05:26:42.736Z,13.78
2022-08-29T05:29:29.331Z,13.78
2022-08-29T05:32:15.889Z,13.80
2022-08-29T05:35:01.197Z,13.82
2022-08-29T05:37:46.687Z,13.83
2022-08-29T05:40:32.517Z,13.85
2022-08-29T05:43:18.464Z,13.85
2022-08-29T05:46:07.499Z,13.87
2022-08-29T05:48:53.299Z,13.92
2022-08-29T05:51:39.878Z,13.95
2022-08-29T05:54:29.968Z,13.98
2022-08-29T05:57:20.343Z,14.01
2022-08-29T06:00:09.006Z,14.07
2022-08-29T06:02:57.660Z,14.17
2022-08-29T06:05:43.291Z,14.20
2022-08-29T06:08:28.788Z,14.24
2022-08-29T06:11:23.216Z,14.31
2022-08-29T06:14:08.852Z,14.39
2022-08-29T06:16:55.230Z,14.49
2022-08-29T06:19:40.735Z,14.56
2022-08-29T06:22:26.437Z,14.62
2022-08-29T06:25:35.563Z,14.70
2022-08-29T06:28:23.860Z,14.77
2022-08-29T06:31:12.676Z,14.83
2022-08-29T06:34:00.831Z,14.90
2022-08-29T06:36:46.458Z,14.96
2022-08-29T06:39:31.949Z,15.04
2022-08-29T06:42:23.221Z,15.11
2022-08-29T06:45:09.652Z,15.19
2022-08-29T06:47:55.370Z,15.23
2022-08-29T06:50:45.461Z,15.29
2022-08-29T06:53:32.492Z,15.37
2022-08-29T06:56:19.386Z,15.44
2022-08-29T06:59:07.366Z,15.51
2022-08-29T07:01:53.031Z,15.57
2022-08-29T07:04:38.677Z,15.64
2022-08-29T07:07:24.002Z,15.71
2022-08-29T07:10:12.518Z,15.79
2022-08-29T07:12:57.944Z,15.88
2022-08-29T07:15:43.311Z,15.96
2022-08-29T07:18:29.340Z,16.02
2022-08-29T07:21:20.738Z,16.11
2022-08-29T07:24:08.014Z,16.14
2022-08-29T07:26:53.293Z,16.17
2022-08-29T07:29:39.286Z,16.13
2022-08-29T07:32:26.036Z,16.15
2022-08-29T07:35:18.157Z,16.17
2022-08-29T07:38:04.035Z,16.21
2022-08-29T07:41:01.660Z,16.23
2022-08-29T07:43:47.193Z,16.29
2022-08-29T07:46:33.067Z,16.35
2022-08-29T07:49:18.539Z,16.34
2022-08-29T07:52:05.004Z,16.38
2022-08-29T07:54:50.399Z,16.42
2022-08-29T07:57:37.018Z,16.48
2022-08-29T08:00:25.365Z,16.51
2022-08-29T08:03:11.305Z,16.56
2022-08-29T08:05:57.318Z,16.58
2022-08-29T08:08:43.217Z,16.63
2022-08-29T08:11:28.606Z,16.66
2022-08-29T08:14:14.235Z,16.64
2022-08-29T08:17:00.346Z,16.59
2022-08-29T08:19:45.953Z,16.53
2022-08-29T08:22:31.698Z,16.48
2022-08-29T08:25:17.794Z,16.42
2022-08-29T08:28:13.934Z,16.43
2022-08-29T08:31:05.758Z,16.42
2022-08-29T08:33:52.138Z,16.43
2022-08-29T08:36:41.317Z,16.48
2022-08-29T08:39:27.303Z,16.52
2022-08-29T08:42:28.880Z,16.57
2022-08-29T08:45:20.423Z,16.61
2022-08-29T08:48:14.178Z,16.69
2022-08-29T08:51:32.575Z,16.74
2022-08-29T08:54:24.300Z,16.82
2022-08-29T08:57:12.532Z,16.88
2022-08-29T08:59:59.102Z,16.94
2022-08-29T09:03:14.233Z,17.03
2022-08-29T09:06:18.521Z,17.08
2022-08-29T09:09:14.469Z,17.16
2022-08-29T09:12:21.327Z,17.22
2022-08-29T09:15:20.809Z,17.25
2022-08-29T09:18:13.693Z,17.27
2022-08-29T09:20:59.922Z,17.27
2022-08-29T09:23:49.555Z,17.30
2022-08-29T09:26:35.530Z,17.32
2022-08-29T09:29:30.071Z,17.30
2022-08-29T09:32:20.306Z,17.33
2022-08-29T09:35:24.570Z,17.35
2022-08-29T09:38:18.505Z,17.38
2022-08-29T09:41:10.771Z,17.44
2022-08-29T09:43:57.521Z,17.46
2022-08-29T09:46:43.093Z,17.51
2022-08-29T09:49:28.567Z,17.66
2022-08-29T09:52:25.015Z,17.76
2022-08-29T09:55:25.209Z,17.94
2022-08-29T09:58:31.727Z,18.02
2022-08-29T10:01:26.213Z,18.03
2022-08-29T10:04:34.247Z,17.95
2022-08-29T10:07:22.099Z,17.94
2022-08-29T10:10:22.861Z,17.91
2022-08-29T10:13:26.917Z,17.94
2022-08-29T10:16:27.977Z,18.00
2022-08-29T10:19:18.627Z,18.05
2022-08-29T10:22:56.942Z,18.11
2022-08-29T10:25:43.082Z,18.19
2022-08-29T10:28:43.197Z,18.23
2022-08-29T10:32:13.306Z,18.31
2022-08-29T10:35:01.837Z,18.32
2022-08-29T10:38:24.875Z,18.40
2022-08-29T10:41:33.842Z,18.44
2022-08-29T10:44:40.658Z,18.48
2022-08-29T10:47:30.583Z,18.50
2022-08-29T10:50:43.139Z,18.60
2022-08-29T10:53:47.796Z,18.64
2022-08-29T10:56:40.750Z,18.68
2022-08-29T10:59:26.282Z,18.72
2022-08-29T11:02:23.970Z,18.75
2022-08-29T11:05:20.057Z,18.82
2022-08-29T11:08:19.927Z,18.89
2022-08-29T11:11:05.773Z,18.96
2022-08-29T11:14:01.213Z,18.96
2022-08-29T11:16:53.346Z,19.01
2022-08-29T11:19:45.944Z,19.06
2022-08-29T11:22:40.013Z,19.13
2022-08-29T11:25:27.640Z,19.15
2022-08-29T11:28:20.196Z,19.24
2022-08-29T11:31:08.749Z,19.29
2022-08-29T11:34:37.800Z,19.29
2022-08-29T11:37:54.152Z,19.38
2022-08-29T11:44:31.252Z,19.58
2022-08-29T11:47:47.523Z,19.72
2022-08-29T11:50:36.182Z,19.86
2022-08-29T11:53:22.712Z,19.97
2022-08-29T11:56:28.709Z,20.07
2022-08-29T11:59:49.407Z,20.22
2022-08-29T12:02:34.886Z,20.30
2022-08-29T12:05:20.958Z,20.62
2022-08-29T12:08:35.984Z,20.92
2022-08-29T12:11:21.935Z,21.12
2022-08-29T12:14:07.678Z,21.30
2022-08-29T12:16:53.608Z,21.53
2022-08-29T12:19:57.271Z,21.71
2022-08-29T12:22:54.241Z,21.69
2022-08-29T12:25:59.315Z,21.78
2022-08-29T12:29:00.365Z,21.93
2022-08-29T12:31:56.762Z,22.20
2022-08-29T12:35:30.707Z,22.21
2022-08-29T12:38:28.200Z,22.21
2022-08-29T12:41:39.251Z,22.19
2022-08-29T12:44:38.440Z,22.12
2022-08-29T12:47:32.884Z,22.14
2022-08-29T12:50:21.544Z,22.40
2022-08-29T12:53:18.915Z,22.47
2022-08-29T12:56:17.079Z,22.52
2022-08-29T12:59:05.345Z,22.16
2022-08-29T13:01:54.277Z,22.15
2022-08-29T13:04:44.163Z,22.09
2022-08-29T13:07:30.657Z,21.92
2022-08-29T13:10:19.297Z,21.69
2022-08-29T13:13:13.804Z,21.35
2022-08-29T13:16:02.474Z,21.36
2022-08-29T13:19:07.415Z,21.51
2022-08-29T13:22:04.287Z,21.95
2022-08-29T13:25:05.662Z,22.40
2022-08-29T13:28:01.635Z,22.89
2022-08-29T13:31:27.962Z,23.18
2022-08-29T13:34:19.419Z,23.32
2022-08-29T13:37:10.521Z,23.43
2022-08-29T13:40:46.654Z,22.66
2022-08-29T13:43:43.321Z,22.14
2022-08-29T13:46:30.683Z,21.73
2022-08-29T13:49:24.762Z,21.48
2022-08-29T13:52:11.521Z,21.53
2022-08-29T13:54:56.779Z,21.60
2022-08-29T13:57:45.062Z,21.52
2022-08-29T14:00:35.532Z,21.83
2022-08-29T14:03:23.143Z,21.79
2022-08-29T14:06:11.517Z,21.73
2022-08-29T14:08:59.410Z,21.65
2022-08-29T14:11:45.407Z,21.51
2022-08-29T14:14:31.061Z,21.42
2022-08-29T14:17:18.916Z,21.39
2022-08-29T14:20:07.703Z,21.47
2022-08-29T14:22:53.046Z,21.40
2022-08-29T14:25:38.510Z,21.27
2022-08-29T14:28:24.065Z,21.30
2022-08-29T14:31:09.737Z,21.26
2022-08-29T14:33:55.112Z,21.29
2022-08-29T14:36:44.931Z,21.33
2022-08-29T14:39:34.252Z,21.39
2022-08-29T14:42:19.690Z,21.33
2022-08-29T14:45:12.639Z,21.42
2022-08-29T14:47:59.128Z,21.50
2022-08-29T14:50:44.627Z,21.59
2022-08-29T14:53:30.954Z,21.71
2022-08-29T14:56:37.406Z,21.66
2022-08-29T14:59:25.747Z,21.74
2022-08-29T15:02:11.425Z,21.77
2022-08-29T15:04:58.796Z,21.78
2022-08-29T15:07:45.238Z,21.81
2022-08-29T15:10:30.703Z,21.71
2022-08-29T15:13:16.145Z,21.63
2022-08-29T15:16:01.856Z,21.45
2022-08-29T15:21:53.468Z,20.89
2022-08-29T15:24:42.506Z,20.21
2022-08-29T15:27:28.070Z,20.03
2022-08-29T15:30:25.338Z,19.91
2022-08-29T15:33:10.748Z,19.93
2022-08-29T15:35:58.899Z,20.00
2022-08-29T15:38:44.808Z,20.40
2022-08-29T15:41:31.318Z,20.93
2022-08-29T15:44:17.433Z,21.36
2022-08-29T15:47:03.973Z,21.50
2022-08-29T15:49:49.876Z,21.55
2022-08-29T15:52:36.649Z,21.13
2022-08-29T15:55:22.399Z,21.21
2022-08-29T15:58:07.675Z,20.91
2022-08-29T16:00:53.403Z,20.85
2022-08-29T16:03:39.027Z,20.91
2022-08-29T16:06:24.361Z,20.97
2022-08-29T16:09:15.765Z,21.19
2022-08-29T16:12:01.403Z,21.36
2022-08-29T16:15:03.699Z,21.61
2022-08-29T16:17:52.692Z,21.63
2022-08-29T16:20:41.380Z,21.58
2022-08-29T16:23:27.159Z,21.40
2022-08-29T16:26:12.469Z,21.03
2022-08-29T16:28:58.074Z,20.17
2022-08-29T16:31:43.378Z,19.85
2022-08-29T16:34:29.422Z,19.51
2022-08-29T16:37:15.642Z,19.49
2022-08-29T16:40:03.960Z,19.32
2022-08-29T16:42:55.316Z,19.34
2022-08-29T16:45:41.195Z,19.41
2022-08-29T16:48:27.178Z,19.50
2022-08-29T16:51:12.625Z,19.55
2022-08-29T16:54:04.702Z,19.44
2022-08-29T16:56:50.511Z,19.43
2022-08-29T16:59:37.097Z,19.33
2022-08-29T17:02:23.128Z,19.29
2022-08-29T17:05:08.919Z,19.25
2022-08-29T17:07:54.291Z,19.14
2022-08-29T17:10:39.698Z,19.05
2022-08-29T17:13:25.484Z,18.75
2022-08-29T17:16:11.324Z,18.79
2022-08-29T17:18:56.919Z,18.78
2022-08-29T17:21:43.222Z,18.80
2022-08-29T17:24:29.273Z,18.55
2022-08-29T17:27:20.696Z,18.45
2022-08-29T17:30:07.640Z,18.32
2022-08-29T17:32:52.868Z,18.20
2022-08-29T17:35:39.184Z,18.28
2022-08-29T17:38:25.219Z,18.39
2022-08-29T17:41:17.266Z,18.36
2022-08-29T17:44:06.504Z,18.35
2022-08-29T17:46:52.170Z,18.42
2022-08-29T17:49:37.745Z,18.35
2022-08-29T17:52:23.315Z,18.30
2022-08-29T17:55:09.604Z,18.35
2022-08-29T17:57:54.893Z,18.21
2022-08-29T18:00:41.287Z,18.18
2022-08-29T18:03:27.072Z,17.98
2022-08-29T18:06:14.619Z,17.96
2022-08-29T18:09:00.693Z,17.92
2022-08-29T18:11:49.434Z,17.91
2022-08-29T18:14:34.985Z,17.81
2022-08-29T18:17:21.590Z,17.67
2022-08-29T18:20:10.403Z,17.64
2022-08-29T18:22:56.210Z,17.62
2022-08-29T18:25:42.032Z,17.62
2022-08-29T18:28:28.399Z,17.68
2022-08-29T18:31:18.536Z,17.69
2022-08-29T18:34:04.353Z,17.44
2022-08-29T18:36:49.957Z,17.30
2022-08-29T18:39:35.201Z,17.12
2022-08-29T18:42:39.376Z,16.98
2022-08-29T18:45:25.953Z,16.84
2022-08-29T18:48:11.889Z,16.69
2022-08-29T18:50:58.620Z,16.59
2022-08-29T18:53:44.782Z,16.52
2022-08-29T18:56:31.442Z,16.43
2022-08-29T18:59:16.938Z,16.34
2022-08-29T19:02:02.538Z,16.24
2022-08-29T19:04:48.027Z,16.18
2022-08-29T19:07:33.515Z,16.12
2022-08-29T19:10:19.896Z,16.05
2022-08-29T19:13:08.216Z,16.00
2022-08-29T19:15:57.885Z,15.93
2022-08-29T19:18:43.722Z,15.87
2022-08-29T19:21:29.069Z,15.82
2022-08-29T19:24:14.712Z,15.78
2022-08-29T19:27:00.279Z,15.71
2022-08-29T19:29:45.875Z,15.64
2022-08-29T19:32:35.451Z,15.60
2022-08-29T19:35:23.118Z,15.57
2022-08-29T19:38:08.812Z,15.53
2022-08-29T19:40:57.092Z,15.50
2022-08-29T19:43:44.175Z,15.46
2022-08-29T19:46:29.791Z,15.43
2022-08-29T19:49:15.464Z,15.36
2022-08-29T19:52:01.314Z,15.34
2022-08-29T19:54:47.162Z,15.29
2022-08-29T19:57:35.962Z,15.28
2022-08-29T20:00:25.155Z,15.27
2022-08-29T20:03:10.579Z,15.26
2022-08-29T20:05:56.584Z,15.24
2022-08-29T20:08:48.328Z,15.21
2022-08-29T20:11:43.828Z,15.18
2022-08-29T20:14:29.663Z,15.16
2022-08-29T20:17:15.001Z,15.15
2022-08-29T20:20:01.100Z,15.15
2022-08-29T20:22:47.030Z,15.10
2022-08-29T20:25:33.793Z,15.05
2022-08-29T20:28:19.292Z,15.03
2022-08-29T20:31:06.939Z,15.01
2022-08-29T20:33:52.423Z,15.01
2022-08-29T20:36:56.253Z,15.03
2022-08-29T20:39:46.538Z,15.00
2022-08-29T20:42:31.922Z,14.94
2022-08-29T20:45:17.364Z,14.88
2022-08-29T20:48:03.524Z,14.87
2022-08-29T20:50:59.881Z,14.83
2022-08-29T20:53:45.697Z,14.85
2022-08-29T20:56:31.701Z,14.86
2022-08-29T20:59:17.569Z,14.85
2022-08-29T21:02:05.049Z,14.87
2022-08-29T21:05:09.195Z,14.85
2022-08-29T21:07:55.124Z,14.88
2022-08-29T21:10:41.871Z,14.89
2022-08-29T21:13:28.153Z,14.89
2022-08-29T21:16:13.852Z,14.91
2022-08-29T21:18:59.277Z,14.87
2022-08-29T21:21:45.580Z,14.87
2022-08-29T21:24:31.288Z,14.85
2022-08-29T21:27:16.541Z,14.75
2022-08-29T21:30:01.960Z,14.77
2022-08-29T21:32:48.350Z,14.79
2022-08-29T21:35:33.756Z,14.78
2022-08-29T21:38:19.080Z,14.77
2022-08-29T21:41:07.824Z,14.68
2022-08-29T21:43:53.448Z,14.62
2022-08-29T21:46:45.765Z,14.59
2022-08-29T21:49:31.834Z,14.53
2022-08-29T21:52:18.989Z,14.55
2022-08-29T21:55:06.459Z,14.62
2022-08-29T21:57:51.816Z,14.63
2022-08-29T22:00:42.128Z,14.67
2022-08-29T22:03:27.608Z,14.70
2022-08-29T22:06:15.146Z,14.76
2022-08-29T22:09:01.855Z,14.80
2022-08-29T22:11:47.521Z,14.84
2022-08-29T22:14:51.432Z,14.86
2022-08-29T22:17:37.049Z,14.91
2022-08-29T22:20:22.235Z,14.85
2022-08-29T22:23:08.470Z,14.84
2022-08-29T22:25:54.153Z,14.93
2022-08-29T22:28:40.485Z,14.93
2022-08-29T22:31:27.813Z,14.96
2022-08-29T22:34:16.071Z,15.00
2022-08-29T22:37:01.484Z,15.06
2022-08-29T22:39:46.818Z,15.08
2022-08-29T22:42:32.247Z,15.13
2022-08-29T22:45:19.356Z,15.17
2022-08-29T22:48:04.758Z,15.15
2022-08-29T22:50:58.105Z,15.17
2022-08-29T22:54:04.665Z,15.18
2022-08-29T22:56:50.407Z,15.16
2022-08-29T22:59:41.646Z,15.18
2022-08-29T23:02:27.503Z,15.16
2022-08-29T23:05:13.700Z,15.15
2022-08-29T23:07:59.191Z,15.17
2022-08-29T23:10:45.222Z,15.15
2022-08-29T23:13:34.851Z,15.13
2022-08-29T23:16:25.569Z,15.11
2022-08-29T23:19:11.014Z,15.07
2022-08-29T23:21:56.606Z,15.04
2022-08-29T23:24:53.951Z,15.02
2022-08-29T23:27:44.145Z,15.02
2022-08-29T23:30:29.369Z,15.05
2022-08-29T23:33:16.396Z,15.05
2022-08-29T23:36:02.021Z,15.04
2022-08-29T23:38:48.193Z,15.05
2022-08-29T23:41:38.175Z,15.04
2022-08-29T23:44:23.956Z,15.04
2022-08-29T23:47:09.241Z,15.04
2022-08-29T23:49:54.570Z,15.02
2022-08-29T23:52:41.738Z,15.01
2022-08-29T23:55:27.194Z,14.99
2022-08-29T23:58:12.650Z,14.96
